Ana Sayfa
METAR-TAF:

METAR-TAF

Havaalanları :

Caldwell Industrial Airport

Caldwell, Idaho, Amerika Birleşik Devletleri

Enlem: 43-38N, Boylam: 116-38W, yükseklik: 740 m

Güncel hava durumu gözlemi

Rapor saat 15:56 UTC de 24 dakika önce yapıldı.
Sakin rüzgar
Sıcaklık 1°C
Nem 80%
Basınç 1021 hPa
Görüş mesafesi: 11.3 km
Açık gökyüzü

METAR: KEUL 181556Z AUTO 00000KT 7SM CLR 01/M02 A3016 RMK AO2 SLP225 T00111017 FZRANO

Saat: 09:20 (16:20 UTC)

Tahmin

Rapor saat 11:39 UTC de 4 saat ve 41 dakika önce yapıldı.
Ayın 18'si saat 12 UTC'den ayın 19'si saat 12 UTC'ye kadar geçerli Tahmin
Rüzgar değişken yönden 6 kt
Görüş mesafesi: 10 km
7000 ft yükseklikte parçalı bulutlu
20000 ft yükseklikte parçalı bulutlu
Ayın 19'si saat 1100 UTC'den
Rüzgar değişken yönden 6 kt
Görüş mesafesi: 10 km
3500 ft yükseklikte parçalı çok bulutlu
5000 ft yükseklikte çok bulutlu
hafif sağanak yağmurlar

TAF: KEUL 181139Z 1812/1912 VRB06KT P6SM SCT070 SCT200 FM191100 VRB06KT P6SM -SHRA BKN035 OVC050

4.000'den fazla havaalanı için hava durumu gözlemleri ve tahminleri (METAR ve TAF raporları).

Kullanılabilir istasyonlar harita üzerinde sarı ve kırmızı noktalarla gösterilir.

İstasyonun adını görmek için fareyi noktanın üzerinde gezdirin.

Sonrasında hava gözlem ve tahminlerini görmek için tıklayın.

Haritayı değiştirmek için: yaklaştırmak için siyah artı işaretli yeşil düğmeye ve uzaklaştırmak için de eksi işaretli düğmeye hızla tıklayın; bitişik haritalar için yeşil okları kullanın.


METAR-TAF: